CKK8667 ZYHB-ZGGG
Flight info
| Callsign | CKK8667 |
|---|---|
| Flight time | N/A |
| Altitude | 34100 |
| Route | LEG19D LEGAG W204 RUSBO G212 BUMDU W47 ASAVA W45 LYA W45 ML W45 NUPTI W45 VESUX W45 IKAVO IKAVO8 |
| Aircraft | B77L/H-SDE1E2E3FGHIJ2J3J4J5M1RWXY/LB1D1 |
Departure
| Time | 2026-05-06 00:17 |
|---|---|
| Airport | Harbin Taiping International Airport (ZYHB) |
Arrival
| Time | N/A |
|---|---|
| Airport | Guangzhou Baiyun International Airport (ZGGG) |
| Time | Latitude | Longitude | Altitude | Speed | Heading |
|---|---|---|---|---|---|
| 2026-05-05 23:59 | 45.63648 | 126.25957 | 453 ft | 0 kts | 129° |
| 2026-05-06 00:08 | 45.63654 | 126.25947 | 452 ft | 4 kts | 132° |
| 2026-05-06 00:08 | 45.63680 | 126.25914 | 452 ft | 4 kts | 150° |
| 2026-05-06 00:08 | 45.63695 | 126.25903 | 451 ft | 4 kts | 163° |
| 2026-05-06 00:09 | 45.63720 | 126.25897 | 453 ft | 4 kts | 188° |
| 2026-05-06 00:09 | 45.63741 | 126.25906 | 452 ft | 4 kts | 213° |
| 2026-05-06 00:09 | 45.63748 | 126.25913 | 451 ft | 1 kts | 219° |
| 2026-05-06 00:11 | 45.63746 | 126.25911 | 451 ft | 2 kts | 219° |
| 2026-05-06 00:11 | 45.63736 | 126.25899 | 453 ft | 6 kts | 219° |
| 2026-05-06 00:12 | 45.63704 | 126.25861 | 453 ft | 11 kts | 219° |
| 2026-05-06 00:12 | 45.63625 | 126.25769 | 454 ft | 18 kts | 219° |
| 2026-05-06 00:12 | 45.63532 | 126.25660 | 455 ft | 19 kts | 218° |
| 2026-05-06 00:12 | 45.63442 | 126.25580 | 455 ft | 10 kts | 174° |
| 2026-05-06 00:13 | 45.63383 | 126.25656 | 455 ft | 15 kts | 130° |
| 2026-05-06 00:13 | 45.63318 | 126.25763 | 455 ft | 12 kts | 141° |
| 2026-05-06 00:13 | 45.63227 | 126.25746 | 455 ft | 17 kts | 216° |
| 2026-05-06 00:13 | 45.63123 | 126.25622 | 456 ft | 20 kts | 219° |
| 2026-05-06 00:14 | 45.63015 | 126.25496 | 456 ft | 16 kts | 219° |
| 2026-05-06 00:14 | 45.62913 | 126.25378 | 458 ft | 22 kts | 219° |
| 2026-05-06 00:14 | 45.62808 | 126.25253 | 459 ft | 16 kts | 219° |
| 2026-05-06 00:14 | 45.62704 | 126.25131 | 459 ft | 22 kts | 219° |
| 2026-05-06 00:15 | 45.62570 | 126.24974 | 460 ft | 27 kts | 219° |
| 2026-05-06 00:15 | 45.62420 | 126.24798 | 461 ft | 28 kts | 220° |
| 2026-05-06 00:15 | 45.62260 | 126.24610 | 462 ft | 32 kts | 219° |
| 2026-05-06 00:15 | 45.62136 | 126.24464 | 464 ft | 6 kts | 219° |
| 2026-05-06 00:16 | 45.60214 | 126.23784 | 469 ft | 6 kts | 221° |
| 2026-05-06 00:16 | 45.60028 | 126.23566 | 473 ft | 79 kts | 219° |
| 2026-05-06 00:16 | 45.59354 | 126.22777 | 481 ft | 170 kts | 219° |
| 2026-05-06 00:16 | 45.58292 | 126.21530 | 801 ft | 212 kts | 219° |
| 2026-05-06 00:17 | 45.57053 | 126.20222 | 1588 ft | 220 kts | 219° |
| 2026-05-06 00:17 | 45.55944 | 126.18932 | 2574 ft | 210 kts | 222° |
| 2026-05-06 00:17 | 45.54816 | 126.17574 | 3140 ft | 226 kts | 222° |
| 2026-05-06 00:17 | 45.53536 | 126.16036 | 3470 ft | 252 kts | 222° |
| 2026-05-06 00:18 | 45.52161 | 126.14405 | 4189 ft | 262 kts | 221° |
| 2026-05-06 00:18 | 45.50728 | 126.12718 | 4980 ft | 269 kts | 221° |
| 2026-05-06 00:18 | 45.49269 | 126.11010 | 5839 ft | 273 kts | 221° |
| 2026-05-06 00:18 | 45.47791 | 126.09285 | 6672 ft | 277 kts | 221° |
| 2026-05-06 00:19 | 45.46292 | 126.07541 | 7480 ft | 280 kts | 221° |
| 2026-05-06 00:19 | 45.44774 | 126.05777 | 8306 ft | 284 kts | 221° |
| 2026-05-06 00:19 | 45.43232 | 126.03986 | 9088 ft | 288 kts | 221° |
| 2026-05-06 00:19 | 45.41668 | 126.02169 | 9882 ft | 292 kts | 221° |
| 2026-05-06 00:20 | 45.40078 | 126.00323 | 10574 ft | 300 kts | 222° |
| 2026-05-06 00:20 | 45.38400 | 125.98372 | 10824 ft | 324 kts | 222° |
| 2026-05-06 00:20 | 45.36588 | 125.96273 | 11042 ft | 348 kts | 222° |
| 2026-05-06 00:20 | 45.34656 | 125.94038 | 11432 ft | 365 kts | 222° |
| 2026-05-06 00:21 | 45.32673 | 125.91747 | 12200 ft | 370 kts | 222° |
| 2026-05-06 00:21 | 45.30676 | 125.89438 | 13200 ft | 369 kts | 223° |
| 2026-05-06 00:21 | 45.28692 | 125.87150 | 14210 ft | 366 kts | 223° |
| 2026-05-06 00:21 | 45.26720 | 125.84879 | 15082 ft | 366 kts | 223° |
| 2026-05-06 00:22 | 45.24764 | 125.82548 | 15895 ft | 367 kts | 224° |
| 2026-05-06 00:22 | 45.22829 | 125.80168 | 16708 ft | 369 kts | 225° |
| 2026-05-06 00:22 | 45.20894 | 125.77774 | 17535 ft | 370 kts | 225° |
| 2026-05-06 00:22 | 45.18948 | 125.75376 | 18311 ft | 371 kts | 225° |
| 2026-05-06 00:23 | 45.16992 | 125.72977 | 18987 ft | 373 kts | 225° |
| 2026-05-06 00:23 | 45.15070 | 125.70629 | 19655 ft | 374 kts | 225° |
| 2026-05-06 00:23 | 45.13087 | 125.68212 | 20323 ft | 376 kts | 225° |
| 2026-05-06 00:23 | 45.11204 | 125.65748 | 20860 ft | 373 kts | 233° |
| 2026-05-06 00:24 | 45.09779 | 125.62679 | 21304 ft | 375 kts | 245° |
| 2026-05-06 00:24 | 45.08896 | 125.59221 | 21983 ft | 374 kts | 256° |
| 2026-05-06 00:24 | 45.08304 | 125.55624 | 22502 ft | 380 kts | 257° |
| 2026-05-06 00:24 | 45.07720 | 125.51902 | 22653 ft | 392 kts | 257° |
| 2026-05-06 00:25 | 45.07121 | 125.48103 | 23009 ft | 400 kts | 257° |
| 2026-05-06 00:25 | 45.06498 | 125.44242 | 23470 ft | 404 kts | 257° |
| 2026-05-06 00:25 | 45.05859 | 125.40358 | 23953 ft | 405 kts | 256° |
| 2026-05-06 00:25 | 45.05211 | 125.36468 | 24445 ft | 407 kts | 256° |
| 2026-05-06 00:26 | 45.04556 | 125.32564 | 24863 ft | 410 kts | 256° |
| 2026-05-06 00:26 | 45.03892 | 125.28632 | 25283 ft | 412 kts | 256° |
| 2026-05-06 00:26 | 45.02973 | 125.24787 | 25653 ft | 416 kts | 246° |
| 2026-05-06 00:26 | 45.01441 | 125.21303 | 26014 ft | 419 kts | 236° |
| 2026-05-06 00:27 | 44.99706 | 125.17977 | 26297 ft | 423 kts | 237° |
| 2026-05-06 00:27 | 44.97978 | 125.14589 | 26630 ft | 425 kts | 237° |
| 2026-05-06 00:27 | 44.96264 | 125.11180 | 27003 ft | 427 kts | 237° |
| 2026-05-06 00:27 | 44.94556 | 125.07755 | 27359 ft | 428 kts | 237° |
| 2026-05-06 00:28 | 44.92838 | 125.04302 | 27647 ft | 431 kts | 237° |
| 2026-05-06 00:28 | 44.91112 | 125.00834 | 27943 ft | 433 kts | 237° |
| 2026-05-06 00:28 | 44.89377 | 124.97355 | 28214 ft | 434 kts | 237° |
| 2026-05-06 00:28 | 44.87632 | 124.93865 | 28455 ft | 437 kts | 237° |
| 2026-05-06 00:29 | 44.85899 | 124.90404 | 28693 ft | 438 kts | 237° |
| 2026-05-06 00:29 | 44.84137 | 124.86895 | 28997 ft | 439 kts | 237° |
| 2026-05-06 00:29 | 44.82375 | 124.83393 | 29403 ft | 437 kts | 237° |
| 2026-05-06 00:29 | 44.80623 | 124.79914 | 29845 ft | 434 kts | 237° |
| 2026-05-06 00:30 | 44.78881 | 124.76457 | 30185 ft | 433 kts | 237° |
| 2026-05-06 00:30 | 44.77138 | 124.73000 | 30460 ft | 433 kts | 237° |
| 2026-05-06 00:30 | 44.75394 | 124.69542 | 30711 ft | 433 kts | 237° |
| 2026-05-06 00:30 | 44.73650 | 124.66090 | 30985 ft | 432 kts | 237° |
| 2026-05-06 00:31 | 44.71907 | 124.62645 | 31270 ft | 431 kts | 237° |
| 2026-05-06 00:31 | 44.70170 | 124.59215 | 31563 ft | 431 kts | 238° |
| 2026-05-06 00:31 | 44.68431 | 124.55786 | 31822 ft | 430 kts | 238° |
| 2026-05-06 00:31 | 44.66699 | 124.52374 | 32088 ft | 430 kts | 238° |
| 2026-05-06 00:32 | 44.64959 | 124.48948 | 32338 ft | 429 kts | 238° |
| 2026-05-06 00:32 | 44.63224 | 124.45537 | 32598 ft | 429 kts | 238° |
| 2026-05-06 00:32 | 44.61490 | 124.42133 | 32857 ft | 428 kts | 239° |
| 2026-05-06 00:32 | 44.59978 | 124.38580 | 33098 ft | 424 kts | 246° |
| 2026-05-06 00:33 | 44.58832 | 124.34781 | 33353 ft | 422 kts | 251° |
| 2026-05-06 00:33 | 44.57884 | 124.30897 | 33621 ft | 420 kts | 254° |
| 2026-05-06 00:33 | 44.57170 | 124.26939 | 33819 ft | 419 kts | 261° |
| 2026-05-06 00:34 | 44.56533 | 124.18885 | 33889 ft | 408 kts | 261° |
| 2026-05-06 00:34 | 44.54879 | 124.11396 | 33892 ft | 404 kts | 249° |
| 2026-05-06 00:35 | 44.52244 | 124.04453 | 33891 ft | 405 kts | 239° |
| 2026-05-06 00:35 | 44.48881 | 123.98137 | 33888 ft | 404 kts | 238° |
| 2026-05-06 00:36 | 44.45556 | 123.91812 | 33895 ft | 403 kts | 239° |
| 2026-05-06 00:36 | 44.42265 | 123.85438 | 33895 ft | 404 kts | 239° |
| 2026-05-06 00:37 | 44.38976 | 123.79031 | 33899 ft | 407 kts | 239° |
| 2026-05-06 00:37 | 44.35664 | 123.72597 | 33900 ft | 409 kts | 239° |
| 2026-05-06 00:38 | 44.32324 | 123.66132 | 33899 ft | 411 kts | 239° |
| 2026-05-06 00:38 | 44.28970 | 123.59658 | 33899 ft | 412 kts | 239° |
| 2026-05-06 00:39 | 44.25603 | 123.53173 | 33898 ft | 413 kts | 239° |
| 2026-05-06 00:39 | 44.22232 | 123.46696 | 33895 ft | 413 kts | 239° |
| 2026-05-06 00:40 | 44.18855 | 123.40223 | 33894 ft | 412 kts | 239° |
| 2026-05-06 00:40 | 44.15484 | 123.33773 | 33896 ft | 411 kts | 239° |
| 2026-05-06 00:41 | 44.12119 | 123.27347 | 33893 ft | 411 kts | 239° |
| 2026-05-06 00:41 | 44.08748 | 123.20926 | 33894 ft | 410 kts | 239° |
| 2026-05-06 00:42 | 44.05382 | 123.14529 | 33895 ft | 410 kts | 239° |
| 2026-05-06 00:42 | 44.02032 | 123.08173 | 33897 ft | 410 kts | 239° |
| 2026-05-06 00:43 | 43.98658 | 123.01786 | 33898 ft | 410 kts | 239° |
| 2026-05-06 00:43 | 43.95279 | 122.95403 | 33896 ft | 410 kts | 239° |
| 2026-05-06 00:44 | 43.91917 | 122.88998 | 33894 ft | 410 kts | 240° |
| 2026-05-06 00:44 | 43.88621 | 122.82560 | 33903 ft | 410 kts | 240° |
| 2026-05-06 00:45 | 43.85322 | 122.76118 | 33897 ft | 410 kts | 240° |
| 2026-05-06 00:45 | 43.82012 | 122.69687 | 33895 ft | 410 kts | 240° |
| 2026-05-06 00:46 | 43.78719 | 122.63312 | 33893 ft | 410 kts | 240° |
| 2026-05-06 00:46 | 43.75395 | 122.56892 | 33909 ft | 410 kts | 240° |
| 2026-05-06 00:47 | 43.72074 | 122.50491 | 33902 ft | 410 kts | 240° |
| 2026-05-06 00:47 | 43.68748 | 122.44095 | 33904 ft | 410 kts | 240° |
| 2026-05-06 00:48 | 43.65417 | 122.37704 | 33904 ft | 410 kts | 240° |
| 2026-05-06 00:48 | 43.62077 | 122.31307 | 33907 ft | 409 kts | 240° |
| 2026-05-06 00:49 | 43.58760 | 122.24966 | 33906 ft | 409 kts | 240° |
| 2026-05-06 00:49 | 43.55433 | 122.18619 | 33907 ft | 409 kts | 241° |
| 2026-05-06 00:50 | 43.52116 | 122.12218 | 33911 ft | 409 kts | 241° |
| 2026-05-06 00:50 | 43.48836 | 122.05865 | 33904 ft | 409 kts | 241° |
| 2026-05-06 00:51 | 43.45518 | 121.99458 | 33900 ft | 409 kts | 241° |
| 2026-05-06 00:51 | 43.42220 | 121.93107 | 33910 ft | 408 kts | 241° |
| 2026-05-06 00:52 | 43.38934 | 121.86797 | 33909 ft | 408 kts | 241° |
| 2026-05-06 00:52 | 43.35609 | 121.80424 | 33908 ft | 407 kts | 241° |
| 2026-05-06 00:53 | 43.32301 | 121.74098 | 33910 ft | 407 kts | 241° |
| 2026-05-06 00:53 | 43.29001 | 121.67800 | 33920 ft | 408 kts | 241° |
| 2026-05-06 00:54 | 43.25686 | 121.61487 | 33909 ft | 408 kts | 241° |
| 2026-05-06 00:54 | 43.22365 | 121.55179 | 33917 ft | 408 kts | 241° |
| 2026-05-06 00:55 | 43.19582 | 121.49902 | 33919 ft | 409 kts | 241° |
| 2026-05-06 00:55 | 43.15684 | 121.42524 | 33909 ft | 410 kts | 241° |
| 2026-05-06 00:56 | 43.12939 | 121.37343 | 33909 ft | 409 kts | 241° |
| 2026-05-06 00:56 | 43.09060 | 121.30035 | 33909 ft | 409 kts | 241° |
| 2026-05-06 00:57 | 43.05713 | 121.23742 | 33905 ft | 409 kts | 241° |
| 2026-05-06 00:57 | 43.02917 | 121.18496 | 33916 ft | 409 kts | 241° |
| 2026-05-06 00:58 | 42.99571 | 121.12230 | 33914 ft | 409 kts | 241° |
| 2026-05-06 00:58 | 42.96212 | 121.05952 | 33920 ft | 409 kts | 241° |
| 2026-05-06 00:59 | 42.92854 | 120.99692 | 33915 ft | 410 kts | 241° |
| 2026-05-06 00:59 | 42.89467 | 120.93389 | 33918 ft | 410 kts | 241° |
| 2026-05-06 01:00 | 42.86113 | 120.87161 | 33919 ft | 411 kts | 241° |
| 2026-05-06 01:00 | 42.82727 | 120.80886 | 33922 ft | 412 kts | 241° |
| 2026-05-06 01:01 | 42.79322 | 120.74590 | 33916 ft | 412 kts | 241° |
| 2026-05-06 01:01 | 42.75917 | 120.68308 | 33926 ft | 413 kts | 241° |
| 2026-05-06 01:02 | 42.72511 | 120.62037 | 33922 ft | 413 kts | 241° |
| 2026-05-06 01:02 | 42.69104 | 120.55778 | 33922 ft | 413 kts | 241° |
| 2026-05-06 01:03 | 42.65682 | 120.49503 | 33914 ft | 413 kts | 241° |
| 2026-05-06 01:03 | 42.62260 | 120.43242 | 33919 ft | 414 kts | 241° |
| 2026-05-06 01:04 | 42.58812 | 120.36947 | 33919 ft | 414 kts | 241° |
| 2026-05-06 01:04 | 42.55364 | 120.30663 | 33915 ft | 414 kts | 241° |
| 2026-05-06 01:05 | 42.51928 | 120.24417 | 33926 ft | 414 kts | 241° |
| 2026-05-06 01:05 | 42.48484 | 120.18168 | 33922 ft | 415 kts | 241° |
| 2026-05-06 01:06 | 42.45035 | 120.11922 | 33917 ft | 415 kts | 241° |
| 2026-05-06 01:06 | 42.41619 | 120.05750 | 33927 ft | 416 kts | 241° |
| 2026-05-06 01:07 | 42.34718 | 119.93320 | 33922 ft | 416 kts | 241° |
| 2026-05-06 01:08 | 42.31253 | 119.87097 | 33911 ft | 416 kts | 241° |
| 2026-05-06 01:08 | 42.27772 | 119.80861 | 33922 ft | 416 kts | 241° |
| 2026-05-06 01:09 | 42.24277 | 119.74611 | 33935 ft | 416 kts | 241° |
| 2026-05-06 01:09 | 42.20781 | 119.68371 | 33911 ft | 417 kts | 241° |
| 2026-05-06 01:10 | 42.17292 | 119.62156 | 33928 ft | 416 kts | 241° |
| 2026-05-06 01:10 | 42.13796 | 119.55945 | 33925 ft | 417 kts | 241° |
| 2026-05-06 01:11 | 42.10280 | 119.49709 | 33926 ft | 417 kts | 241° |
| 2026-05-06 01:11 | 42.06768 | 119.43494 | 33922 ft | 417 kts | 241° |
| 2026-05-06 01:12 | 42.03261 | 119.37298 | 33923 ft | 417 kts | 241° |
| 2026-05-06 01:12 | 41.99724 | 119.31064 | 33926 ft | 417 kts | 241° |
| 2026-05-06 01:13 | 41.96216 | 119.24894 | 33930 ft | 417 kts | 241° |
| 2026-05-06 01:13 | 41.92674 | 119.18676 | 33928 ft | 417 kts | 241° |
| 2026-05-06 01:14 | 41.87371 | 119.09390 | 33925 ft | 418 kts | 241° |
| 2026-05-06 01:14 | 41.83834 | 119.03214 | 33925 ft | 418 kts | 241° |
| 2026-05-06 01:15 | 41.80284 | 118.97026 | 33915 ft | 418 kts | 241° |
| 2026-05-06 01:15 | 41.76728 | 118.90843 | 33926 ft | 418 kts | 241° |
| 2026-05-06 01:16 | 41.73189 | 118.84698 | 33930 ft | 419 kts | 241° |
| 2026-05-06 01:16 | 41.69625 | 118.78523 | 33936 ft | 419 kts | 241° |
| 2026-05-06 01:17 | 41.66047 | 118.72337 | 33918 ft | 420 kts | 240° |
| 2026-05-06 01:17 | 41.62836 | 118.66798 | 33951 ft | 419 kts | 240° |